Essaouira, Morocco
Current Conditions -  °F | °C
As of 10:00 AM on Wednesday 22 Oct 2014 (Local Time) from GMAD Reporting Station
Clear Clear  
Wind Chill: 79°   Ceiling: Unl
Heat Index: 79°   Visibility: 6mi
Dew Point: 36°   Wind: 13mph
Humidity: 21%   Direction: 70°ENE
Pressure: 30.09"   Gusts: NA
Location:  31.52°N, 9.77°W
Report Text: GMAD 220900Z 07011KT CAVOK 26/02 Q1019 NOSIG
Loading
Personal Weather Stations






























Interactive Weather Map
Tropical Storm Tracking
New forecast layout! Learn more

10-Day Weather Forecast

Advertisements
Track Severe Weather on mobile